Time;durP1;ratioP1;P1;durP2;ratioP2;P2;SDS_P1;SDS_P2;PMS_P1;PMS_P2;Temp;Humidity;BMP_temperature;BMP_pressure;BME280_temperature;BME280_humidity;BME280_pressure;Samples;Min_cycle;Max_cycle;Signal;HPM_P1;HPM_P2
2022/10/20 00:00:36;;;;;;;10.15;5.20;;;8.20;99.90;;;;;;6339906;22;20018;-80
2022/10/20 00:03:02;;;;;;;10.43;5.30;;;8.10;99.90;;;;;;6339877;22;20057;-79
2022/10/20 00:05:27;;;;;;;10.85;5.22;;;8.10;99.90;;;;;;6339714;22;20013;-79
2022/10/20 00:07:53;;;;;;;12.15;5.35;;;8.20;99.90;;;;;;6339935;22;20018;-80
2022/10/20 00:10:18;;;;;;;10.73;5.38;;;8.10;99.90;;;;;;6311775;22;20335;-79
2022/10/20 00:12:44;;;;;;;10.88;5.55;;;8.10;99.90;;;;;;6339788;22;20067;-79
2022/10/20 00:15:10;;;;;;;10.18;5.28;;;8.10;99.90;;;;;;6339710;22;20046;-79
2022/10/20 00:17:35;;;;;;;11.13;5.18;;;8.10;99.90;;;;;;6339645;22;20330;-80
2022/10/20 00:20:01;;;;;;;16.20;5.82;;;8.10;99.90;;;;;;6339809;22;20019;-80
2022/10/20 00:22:26;;;;;;;11.25;5.70;;;8.00;99.90;;;;;;6339728;22;20011;-79
2022/10/20 00:24:52;;;;;;;10.90;5.68;;;8.00;99.90;;;;;;6339712;22;20450;-79
2022/10/20 00:27:18;;;;;;;10.25;5.60;;;8.00;99.90;;;;;;6339359;22;20014;-80
2022/10/20 00:29:43;;;;;;;11.57;5.47;;;8.10;99.90;;;;;;6311810;22;20019;-80
2022/10/20 00:32:09;;;;;;;8.27;4.38;;;8.10;99.90;;;;;;6339727;22;20014;-80
2022/10/20 00:34:34;;;;;;;9.57;5.45;;;8.10;99.90;;;;;;6339594;22;20050;-79
2022/10/20 00:37:00;;;;;;;10.23;5.38;;;8.10;99.90;;;;;;6311715;22;20021;-79
2022/10/20 00:39:26;;;;;;;10.30;5.95;;;8.00;99.90;;;;;;6339589;22;20026;-79
2022/10/20 00:41:51;;;;;;;9.75;5.18;;;8.00;99.90;;;;;;6339256;22;20023;-80
2022/10/20 00:44:50;;;;;;;11.25;5.60;;;7.90;99.90;;;;;;6311366;22;20018;-80
2022/10/20 00:47:36;;;;;;;9.45;5.40;;;8.00;99.90;;;;;;6339273;22;20023;-79
2022/10/20 00:50:07;;;;;;;9.25;5.05;;;8.00;99.90;;;;;;6311603;22;20072;-79
2022/10/20 00:52:33;;;;;;;12.68;4.88;;;8.00;99.90;;;;;;6339130;22;20522;-80
2022/10/20 00:55:00;;;;;;;11.27;5.72;;;7.90;99.90;;;;;;6339479;22;20019;-79
2022/10/20 00:57:26;;;;;;;7.75;4.82;;;7.90;99.90;;;;;;6340561;22;20010;-80
2022/10/20 00:59:53;;;;;;;7.15;4.70;;;7.90;99.90;;;;;;6313693;22;20033;-79
2022/10/20 01:02:19;;;;;;;11.88;5.80;;;8.00;99.90;;;;;;6341548;22;20053;-79
2022/10/20 01:04:45;;;;;;;10.13;5.53;;;7.90;99.90;;;;;;6341503;22;20019;-80
2022/10/20 01:07:10;;;;;;;11.45;5.45;;;7.90;99.90;;;;;;6313670;22;20014;-79
2022/10/20 01:09:37;;;;;;;9.50;5.45;;;7.90;99.90;;;;;;6341468;22;20014;-79
2022/10/20 01:12:13;;;;;;;9.02;4.97;;;7.90;99.90;;;;;;6341447;22;20014;-79
2022/10/20 01:14:54;;;;;;;9.38;4.97;;;7.90;99.90;;;;;;6341329;22;20112;-79
2022/10/20 01:17:47;;;;;;;11.73;5.15;;;7.90;99.90;;;;;;6341556;22;20014;-79
2022/10/20 01:20:22;;;;;;;9.85;4.80;;;7.90;99.90;;;;;;6341313;22;20011;-79
2022/10/20 01:22:47;;;;;;;8.70;4.32;;;7.90;99.90;;;;;;6341416;22;20015;-79
2022/10/20 01:25:39;;;;;;;11.07;5.07;;;7.90;99.90;;;;;;6313341;22;20026;-79
2022/10/20 01:28:14;;;;;;;9.85;5.07;;;7.80;99.90;;;;;;6341283;22;20011;-79
2022/10/20 01:30:45;;;;;;;9.00;4.65;;;7.80;99.90;;;;;;6340751;22;20018;-79
2022/10/20 01:33:41;;;;;;;7.13;4.72;;;7.80;99.90;;;;;;6341132;22;20063;-78
2022/10/20 01:36:19;;;;;;;9.55;4.88;;;7.80;99.90;;;;;;6313264;22;20434;-78
2022/10/20 01:38:55;;;;;;;9.20;4.30;;;7.70;99.90;;;;;;6341207;22;20021;-79
2022/10/20 01:41:33;;;;;;;10.18;3.97;;;7.70;99.90;;;;;;6313096;22;20057;-79
2022/10/20 01:44:05;;;;;;;10.50;4.55;;;7.70;99.90;;;;;;6340618;22;20316;-78
2022/10/20 01:46:32;;;;;;;9.88;4.78;;;7.70;99.90;;;;;;6341049;22;20068;-79
2022/10/20 01:49:01;;;;;;;9.93;4.63;;;7.70;99.90;;;;;;6313262;22;20040;-79
2022/10/20 01:51:26;;;;;;;6.78;4.18;;;7.70;99.90;;;;;;6341090;22;20018;-79
2022/10/20 01:53:52;;;;;;;8.38;5.15;;;7.70;99.90;;;;;;6313077;22;20019;-79
2022/10/20 01:56:26;;;;;;;10.23;4.55;;;7.60;99.90;;;;;;6340987;22;20015;-80
2022/10/20 01:59:10;;;;;;;18.05;5.07;;;7.70;99.90;;;;;;6313177;22;20094;-80
2022/10/20 02:02:14;;;;;;;11.07;5.13;;;7.60;99.90;;;;;;6340988;22;20014;-79
2022/10/20 02:05:09;;;;;;;10.27;5.20;;;7.60;99.90;;;;;;6293795;22;20339;-79
2022/10/20 02:07:34;;;;;;;8.35;5.45;;;7.50;99.90;;;;;;6281903;22;20019;-79
2022/10/20 02:10:09;;;;;;;10.38;5.28;;;7.50;99.90;;;;;;6340834;22;20045;-79
2022/10/20 02:12:38;;;;;;;10.63;5.22;;;7.40;99.90;;;;;;6340826;22;20019;-79
2022/10/20 02:15:07;;;;;;;10.10;4.97;;;7.40;99.90;;;;;;6312703;22;20388;-79
2022/10/20 02:17:36;;;;;;;9.30;4.80;;;7.50;99.90;;;;;;6340672;22;20015;-79
2022/10/20 02:20:04;;;;;;;8.73;4.85;;;7.50;99.90;;;;;;6312850;22;20432;-79
2022/10/20 02:22:31;;;;;;;9.02;5.20;;;7.50;99.90;;;;;;6311880;22;20018;-79
2022/10/20 02:24:58;;;;;;;7.97;5.05;;;7.40;99.90;;;;;;6340469;22;20033;-79
2022/10/20 02:27:29;;;;;;;7.20;4.65;;;7.40;99.90;;;;;;6340608;22;20015;-79
2022/10/20 02:30:00;;;;;;;9.88;5.65;;;7.50;99.90;;;;;;6340754;22;20056;-79
2022/10/20 02:32:28;;;;;;;9.65;5.30;;;7.40;99.90;;;;;;6340652;22;20046;-79
2022/10/20 02:34:54;;;;;;;11.15;4.63;;;7.40;99.90;;;;;;6340206;22;20019;-78
2022/10/20 02:37:20;;;;;;;10.32;4.90;;;7.40;99.90;;;;;;6340875;22;20083;-79
2022/10/20 02:39:45;;;;;;;9.88;4.97;;;7.40;99.90;;;;;;6340243;22;20022;-79
2022/10/20 02:42:11;;;;;;;8.05;4.68;;;7.30;99.90;;;;;;6340144;22;20482;-79
2022/10/20 02:44:37;;;;;;;11.38;5.03;;;7.30;99.90;;;;;;6312598;22;20064;-79
2022/10/20 02:47:03;;;;;;;7.90;4.80;;;7.20;99.90;;;;;;6340524;22;20027;-79
2022/10/20 02:49:29;;;;;;;10.68;5.13;;;7.20;99.90;;;;;;6340442;22;20007;-78
2022/10/20 02:51:54;;;;;;;10.63;5.90;;;7.20;99.90;;;;;;6312670;22;20025;-79
2022/10/20 02:54:20;;;;;;;6.63;4.53;;;7.20;99.90;;;;;;6340373;22;20063;-79
2022/10/20 02:56:45;;;;;;;9.20;5.03;;;7.20;99.90;;;;;;6340049;22;20098;-79
2022/10/20 02:59:14;;;;;;;8.75;5.00;;;7.20;99.90;;;;;;6312580;22;20075;-79
2022/10/20 03:01:40;;;;;;;8.07;5.32;;;7.20;99.90;;;;;;6339800;22;20338;-79
2022/10/20 03:04:05;;;;;;;9.73;5.30;;;7.10;99.90;;;;;;6312529;22;20011;-79
2022/10/20 03:06:31;;;;;;;11.98;5.38;;;7.10;99.90;;;;;;6340379;22;20014;-80
2022/10/20 03:08:57;;;;;;;13.82;5.50;;;7.20;99.90;;;;;;6339865;22;20072;-79
2022/10/20 03:11:23;;;;;;;9.90;5.88;;;7.10;99.90;;;;;;6339969;22;20015;-79
2022/10/20 03:13:48;;;;;;;9.13;5.03;;;7.10;99.90;;;;;;6312461;22;20011;-79
2022/10/20 03:16:14;;;;;;;9.93;5.07;;;7.10;99.90;;;;;;6312412;22;20396;-79
2022/10/20 03:18:39;;;;;;;9.90;4.60;;;7.10;99.90;;;;;;6340661;22;20011;-79
2022/10/20 03:21:05;;;;;;;10.98;5.68;;;7.10;99.90;;;;;;6339562;22;20017;-79
2022/10/20 03:23:31;;;;;;;10.45;4.70;;;7.10;99.90;;;;;;6339679;22;20019;-80
2022/10/20 03:26:04;;;;;;;10.23;5.40;;;7.10;99.90;;;;;;6312258;22;20019;-79
2022/10/20 03:28:30;;;;;;;8.88;4.75;;;7.10;99.90;;;;;;6340290;22;20015;-79
2022/10/20 03:30:56;;;;;;;14.27;6.93;;;7.10;99.90;;;;;;6340007;22;20018;-79
2022/10/20 03:33:22;;;;;;;10.82;4.63;;;7.00;99.90;;;;;;6339738;22;20067;-79
2022/10/20 03:35:47;;;;;;;9.02;5.57;;;7.10;99.90;;;;;;6340014;22;20017;-80
2022/10/20 03:38:13;;;;;;;11.88;5.35;;;7.00;99.90;;;;;;6340159;22;20019;-79
2022/10/20 03:40:38;;;;;;;11.13;5.60;;;7.10;99.90;;;;;;6312021;22;20022;-79
2022/10/20 03:43:04;;;;;;;10.80;5.38;;;7.00;99.90;;;;;;6311587;22;20019;-79
2022/10/20 03:45:30;;;;;;;8.40;5.60;;;7.00;99.90;;;;;;6312115;22;20054;-79
2022/10/20 03:47:55;;;;;;;11.93;5.68;;;6.90;99.90;;;;;;6340081;22;20050;-79
2022/10/20 03:50:21;;;;;;;10.13;5.72;;;6.90;99.90;;;;;;6340023;22;20156;-79
2022/10/20 03:52:50;;;;;;;10.85;5.05;;;6.90;99.90;;;;;;6339582;22;20013;-79
2022/10/20 03:55:17;;;;;;;11.63;5.75;;;6.90;99.90;;;;;;6339933;22;20015;-79
2022/10/20 03:57:43;;;;;;;8.10;5.57;;;6.90;99.90;;;;;;6312012;22;20023;-79
2022/10/20 04:00:10;;;;;;;10.52;5.53;;;7.00;99.90;;;;;;6339918;22;20380;-79
2022/10/20 04:02:39;;;;;;;10.38;5.88;;;7.00;99.90;;;;;;6339871;22;20011;-79
2022/10/20 04:05:05;;;;;;;11.15;6.18;;;6.90;99.90;;;;;;6339917;22;20053;-80
2022/10/20 04:07:31;;;;;;;8.52;5.38;;;6.90;99.90;;;;;;6312022;22;20015;-79
2022/10/20 04:09:57;;;;;;;9.38;6.13;;;6.80;99.90;;;;;;6339596;22;20026;-79
2022/10/20 04:12:23;;;;;;;9.63;6.22;;;6.90;99.90;;;;;;6339730;22;20026;-79
2022/10/20 04:14:49;;;;;;;12.40;6.50;;;6.90;99.90;;;;;;6311797;22;20014;-80
2022/10/20 04:17:15;;;;;;;11.68;6.43;;;6.90;99.90;;;;;;6339808;22;20115;-78
2022/10/20 04:19:40;;;;;;;11.60;6.15;;;6.80;99.90;;;;;;6339776;22;20025;-79
2022/10/20 04:22:06;;;;;;;12.35;6.72;;;6.80;99.90;;;;;;6339745;22;20011;-79
2022/10/20 04:24:32;;;;;;;12.10;5.80;;;6.90;99.90;;;;;;6339696;22;20053;-79
2022/10/20 04:26:58;;;;;;;9.52;5.50;;;6.80;99.90;;;;;;6339759;22;20086;-79
2022/10/20 04:29:24;;;;;;;12.02;6.25;;;6.80;99.90;;;;;;6338769;22;20461;-79
2022/10/20 04:31:49;;;;;;;9.77;6.03;;;6.80;99.90;;;;;;6339660;22;20034;-79
2022/10/20 04:34:15;;;;;;;13.93;7.65;;;6.80;99.90;;;;;;6339235;22;20380;-81
2022/10/20 04:36:41;;;;;;;12.68;6.38;;;6.80;99.90;;;;;;6339381;22;20023;-79
2022/10/20 04:39:07;;;;;;;10.95;6.80;;;6.80;99.90;;;;;;6339670;22;20015;-79
2022/10/20 04:41:33;;;;;;;11.30;6.57;;;6.80;99.90;;;;;;6339338;22;20033;-79
2022/10/20 04:43:58;;;;;;;12.77;7.38;;;6.80;99.90;;;;;;6339243;22;20027;-79
2022/10/20 04:46:25;;;;;;;12.18;7.28;;;6.70;99.90;;;;;;6339172;22;20015;-79
2022/10/20 04:48:52;;;;;;;12.85;6.43;;;6.70;99.90;;;;;;6339280;22;20015;-79
2022/10/20 04:51:17;;;;;;;14.80;7.38;;;6.80;99.90;;;;;;6339592;22;20041;-79
2022/10/20 04:53:43;;;;;;;11.32;6.38;;;6.80;99.90;;;;;;6339448;22;20023;-79
2022/10/20 04:56:12;;;;;;;11.18;6.90;;;6.90;99.90;;;;;;6339534;22;20140;-80
2022/10/20 04:58:38;;;;;;;11.98;6.60;;;6.80;99.90;;;;;;6339586;22;20014;-79
2022/10/20 05:01:06;;;;;;;12.40;7.38;;;6.80;99.90;;;;;;6339535;22;20334;-79
2022/10/20 05:03:33;;;;;;;13.40;6.90;;;6.80;99.90;;;;;;6311570;22;20094;-79
2022/10/20 05:06:11;;;;;;;12.13;7.32;;;6.80;99.90;;;;;;6311454;22;20065;-79
2022/10/20 05:08:37;;;;;;;9.82;6.78;;;6.80;99.90;;;;;;6311524;22;20022;-78
2022/10/20 05:11:03;;;;;;;13.48;7.63;;;6.80;99.90;;;;;;6311423;22;20044;-79
2022/10/20 05:13:29;;;;;;;14.52;7.68;;;6.80;99.90;;;;;;6339464;22;20014;-78
2022/10/20 05:15:54;;;;;;;12.32;7.72;;;6.70;99.90;;;;;;6311486;22;20346;-78
2022/10/20 05:18:20;;;;;;;14.70;8.27;;;6.80;99.90;;;;;;6339076;22;20304;-79
2022/10/20 05:20:46;;;;;;;12.38;7.45;;;6.70;99.90;;;;;;6339397;22;20014;-79
2022/10/20 05:23:11;;;;;;;13.15;8.60;;;6.70;99.90;;;;;;6339010;22;20021;-79
2022/10/20 05:25:37;;;;;;;11.57;7.70;;;6.70;99.90;;;;;;6311450;22;20010;-79
2022/10/20 05:28:04;;;;;;;13.27;7.97;;;6.70;99.90;;;;;;6311483;22;20023;-79
2022/10/20 05:30:30;;;;;;;13.73;8.40;;;6.70;99.90;;;;;;6311403;22;20015;-79
2022/10/20 05:32:56;;;;;;;11.50;7.63;;;6.70;99.90;;;;;;6311345;22;20046;-79
2022/10/20 05:35:21;;;;;;;12.35;7.68;;;6.80;99.90;;;;;;6311180;22;20025;-79
2022/10/20 05:37:47;;;;;;;15.10;7.28;;;6.70;99.90;;;;;;6311348;22;20371;-79
2022/10/20 05:40:13;;;;;;;14.73;7.68;;;6.70;99.90;;;;;;6311347;22;20027;-79
2022/10/20 05:42:38;;;;;;;12.55;8.63;;;6.80;99.90;;;;;;6311649;22;20022;-79
2022/10/20 05:45:05;;;;;;;13.95;8.73;;;6.80;99.90;;;;;;6340350;22;20015;-79
2022/10/20 05:47:32;;;;;;;15.13;9.40;;;6.70;99.90;;;;;;6341128;22;20015;-79
2022/10/20 05:49:57;;;;;;;15.35;8.48;;;6.70;99.90;;;;;;6341020;22;20036;-79
2022/10/20 05:52:23;;;;;;;14.73;9.25;;;6.60;99.90;;;;;;6312876;22;20380;-79
2022/10/20 05:54:49;;;;;;;13.68;8.98;;;6.60;99.90;;;;;;6340004;22;20097;-79
2022/10/20 05:57:14;;;;;;;13.05;8.32;;;6.60;99.90;;;;;;6339741;22;20006;-79
2022/10/20 05:59:40;;;;;;;13.13;8.30;;;6.50;99.90;;;;;;6313314;22;20025;-80
2022/10/20 06:02:07;;;;;;;14.60;8.38;;;6.60;99.90;;;;;;6312873;22;20019;-79
2022/10/20 06:04:33;;;;;;;15.85;9.32;;;6.60;99.90;;;;;;6340218;22;20495;-79
2022/10/20 06:06:59;;;;;;;15.23;8.35;;;6.60;99.90;;;;;;6340215;22;20018;-79
2022/10/20 06:09:24;;;;;;;16.63;9.32;;;6.70;99.90;;;;;;6339718;22;20085;-79
2022/10/20 06:11:51;;;;;;;13.60;9.55;;;6.70;99.90;;;;;;6338868;22;20068;-80
2022/10/20 06:14:17;;;;;;;15.63;9.15;;;6.60;99.90;;;;;;6340318;22;20338;-79
2022/10/20 06:16:43;;;;;;;15.05;9.25;;;6.60;99.90;;;;;;6340662;22;20078;-79
2022/10/20 06:19:09;;;;;;;13.80;8.75;;;6.60;99.90;;;;;;6340519;22;20416;-79
2022/10/20 06:21:36;;;;;;;14.20;8.20;;;6.60;99.90;;;;;;6340329;22;20025;-80
2022/10/20 06:24:04;;;;;;;15.75;9.25;;;6.60;99.90;;;;;;6340568;22;20026;-78
2022/10/20 06:26:32;;;;;;;13.95;9.23;;;6.60;99.90;;;;;;6340249;22;20019;-80
2022/10/20 06:28:58;;;;;;;16.10;9.10;;;6.70;99.90;;;;;;6312552;22;20343;-79
2022/10/20 06:31:26;;;;;;;14.55;9.55;;;6.60;99.90;;;;;;6312569;22;20097;-80
2022/10/20 06:33:53;;;;;;;14.73;8.85;;;6.70;99.90;;;;;;6340459;22;20030;-79
2022/10/20 06:36:20;;;;;;;18.13;9.35;;;6.60;99.90;;;;;;6339309;22;20037;-78
2022/10/20 06:38:47;;;;;;;16.55;9.48;;;6.60;99.90;;;;;;6340066;22;20018;-78
2022/10/20 06:41:16;;;;;;;16.60;10.00;;;6.60;99.90;;;;;;6340221;22;20093;-78
2022/10/20 06:43:45;;;;;;;15.00;10.48;;;6.60;99.90;;;;;;6339982;22;20060;-77
2022/10/20 06:46:17;;;;;;;16.25;9.38;;;6.60;99.90;;;;;;6312171;22;20342;-79
2022/10/20 06:48:43;;;;;;;22.23;12.32;;;6.70;99.90;;;;;;6340030;22;20019;-77
2022/10/20 06:51:11;;;;;;;21.23;13.35;;;6.70;99.90;;;;;;6312153;22;20019;-78
2022/10/20 06:53:38;;;;;;;19.58;11.52;;;6.70;99.90;;;;;;6340061;22;20019;-79
2022/10/20 06:56:07;;;;;;;17.42;11.00;;;6.70;99.90;;;;;;6339293;22;20108;-78
2022/10/20 06:58:34;;;;;;;19.73;10.90;;;6.70;99.90;;;;;;6340123;22;20007;-79
2022/10/20 07:01:03;;;;;;;17.95;9.77;;;6.80;99.90;;;;;;6340170;22;20015;-79
2022/10/20 07:03:29;;;;;;;17.77;9.75;;;6.70;99.90;;;;;;6340287;22;20082;-78
2022/10/20 07:05:55;;;;;;;16.60;10.52;;;6.70;99.90;;;;;;6339662;22;20441;-80
2022/10/20 07:08:21;;;;;;;17.90;11.20;;;6.80;99.90;;;;;;6339620;22;20026;-78
2022/10/20 07:10:55;;;;;;;17.73;11.23;;;6.80;99.90;;;;;;6312111;22;20015;-78
2022/10/20 07:13:21;;;;;;;18.13;10.82;;;6.90;99.90;;;;;;6312015;22;20073;-80
2022/10/20 07:15:46;;;;;;;18.50;11.60;;;6.90;99.90;;;;;;6312068;22;20019;-78
2022/10/20 07:18:12;;;;;;;18.67;10.98;;;6.90;99.90;;;;;;6339581;22;20022;-80
2022/10/20 07:20:38;;;;;;;20.35;12.48;;;7.00;99.90;;;;;;6312036;22;20043;-79
2022/10/20 07:23:03;;;;;;;27.92;16.33;;;7.00;99.90;;;;;;6311936;22;20350;-78
2022/10/20 07:25:29;;;;;;;28.13;16.85;;;7.00;99.90;;;;;;6311963;22;20044;-79
2022/10/20 07:27:54;;;;;;;24.98;14.10;;;7.00;99.90;;;;;;6311522;22;20056;-81
2022/10/20 07:30:20;;;;;;;20.33;12.73;;;7.00;99.90;;;;;;6311411;22;20017;-79
2022/10/20 07:32:45;;;;;;;23.52;12.55;;;7.10;99.90;;;;;;6339858;22;20010;-81
2022/10/20 07:35:11;;;;;;;17.98;11.52;;;7.10;99.90;;;;;;6311765;22;20068;-81
2022/10/20 07:37:37;;;;;;;17.33;10.75;;;7.10;99.90;;;;;;6311810;22;20340;-80
2022/10/20 07:40:03;;;;;;;19.00;11.13;;;7.10;99.90;;;;;;6311820;22;20025;-81
2022/10/20 07:42:28;;;;;;;22.65;10.35;;;7.10;99.90;;;;;;6311580;22;20330;-80
2022/10/20 07:44:54;;;;;;;17.17;10.05;;;7.20;99.90;;;;;;6311427;22;20465;-79
2022/10/20 07:47:19;;;;;;;19.45;10.82;;;7.20;99.90;;;;;;6339659;22;20426;-80
2022/10/20 07:49:45;;;;;;;18.15;11.00;;;7.20;99.90;;;;;;6339309;22;20022;-81
2022/10/20 07:52:11;;;;;;;18.50;11.07;;;7.20;99.90;;;;;;6311613;22;20006;-80
2022/10/20 07:54:37;;;;;;;17.33;9.43;;;7.20;99.90;;;;;;6311551;22;20010;-80
2022/10/20 07:57:02;;;;;;;19.05;11.57;;;7.20;99.90;;;;;;6311604;22;20018;-80
2022/10/20 07:59:28;;;;;;;15.20;9.73;;;7.20;99.90;;;;;;6311632;22;20017;-80
2022/10/20 08:01:54;;;;;;;18.10;10.30;;;7.30;99.90;;;;;;6311608;22;20018;-80
2022/10/20 08:04:20;;;;;;;17.48;11.10;;;7.30;99.90;;;;;;6311549;22;20057;-80
2022/10/20 08:06:46;;;;;;;25.65;14.00;;;7.40;99.90;;;;;;6311470;22;20007;-81
2022/10/20 08:09:11;;;;;;;30.98;17.15;;;7.40;99.90;;;;;;6311497;22;20022;-81
2022/10/20 08:11:37;;;;;;;20.02;12.05;;;7.40;99.90;;;;;;6339476;22;20010;-80
2022/10/20 08:14:03;;;;;;;16.38;10.57;;;7.50;99.90;;;;;;6311413;22;20018;-80
2022/10/20 08:16:29;;;;;;;16.88;10.80;;;7.50;99.90;;;;;;6311549;22;20392;-79
2022/10/20 08:18:54;;;;;;;16.92;10.25;;;7.50;99.90;;;;;;6311800;22;20014;-80
2022/10/20 08:21:21;;;;;;;18.65;11.05;;;7.60;99.90;;;;;;6311484;22;20458;-80
2022/10/20 08:23:48;;;;;;;21.20;12.80;;;7.60;99.90;;;;;;6311480;22;20015;-80
2022/10/20 08:26:20;;;;;;;21.23;12.32;;;7.60;99.90;;;;;;6311269;22;20025;-79
2022/10/20 08:28:47;;;;;;;17.80;11.18;;;7.60;99.90;;;;;;6311478;22;20064;-79
2022/10/20 08:31:13;;;;;;;18.50;10.70;;;7.70;99.90;;;;;;6311389;22;20082;-80
2022/10/20 08:33:39;;;;;;;17.63;9.95;;;7.70;99.90;;;;;;6339424;22;20014;-80
2022/10/20 08:36:14;;;;;;;18.92;11.57;;;7.80;99.90;;;;;;6311100;22;20343;-79
2022/10/20 08:38:40;;;;;;;17.63;10.63;;;7.90;99.90;;;;;;6311163;22;20019;-81
2022/10/20 08:41:17;;;;;;;14.82;10.15;;;7.90;99.90;;;;;;6338878;22;20026;-80
2022/10/20 08:43:44;;;;;;;15.13;9.90;;;7.90;99.90;;;;;;6311035;22;20148;-79
2022/10/20 08:46:18;;;;;;;15.95;10.85;;;8.00;99.90;;;;;;6311285;22;20022;-82
2022/10/20 08:48:45;;;;;;;17.13;9.82;;;8.00;99.90;;;;;;6311265;22;20046;-82
2022/10/20 08:51:18;;;;;;;15.85;9.80;;;8.10;99.90;;;;;;6311085;22;20088;-81
2022/10/20 08:53:45;;;;;;;14.25;9.80;;;8.10;99.90;;;;;;6339237;22;20021;-79
2022/10/20 08:56:14;;;;;;;17.77;10.48;;;8.10;99.90;;;;;;6311035;22;20338;-80
2022/10/20 08:58:45;;;;;;;13.13;10.02;;;8.10;99.90;;;;;;6311193;22;20041;-80
2022/10/20 09:01:19;;;;;;;14.38;10.02;;;8.20;99.90;;;;;;6338310;22;20441;-80
2022/10/20 09:03:54;;;;;;;15.18;10.05;;;8.30;99.90;;;;;;6339257;22;20010;-80
2022/10/20 09:06:20;;;;;;;15.77;9.68;;;8.30;99.90;;;;;;6311087;22;20011;-81
2022/10/20 09:08:46;;;;;;;16.05;10.05;;;8.40;99.90;;;;;;6338937;22;20014;-80
2022/10/20 09:11:23;;;;;;;16.15;10.48;;;8.40;99.90;;;;;;6311074;22;20094;-80
2022/10/20 09:13:49;;;;;;;15.77;10.20;;;8.60;99.90;;;;;;6310886;22;20055;-81
2022/10/20 09:16:26;;;;;;;14.80;10.35;;;8.70;99.90;;;;;;6311007;22;20019;-81
2022/10/20 09:18:57;;;;;;;16.23;9.48;;;8.70;99.90;;;;;;6312532;22;20010;-81
2022/10/20 09:21:24;;;;;;;16.95;10.35;;;8.80;99.90;;;;;;6313036;22;20451;-80
2022/10/20 09:23:53;;;;;;;14.93;9.68;;;8.90;99.90;;;;;;6313169;22;20058;-80
2022/10/20 09:26:33;;;;;;;17.67;9.23;;;9.00;99.90;;;;;;6313112;22;20384;-80
2022/10/20 09:29:13;;;;;;;17.02;9.30;;;9.20;99.90;;;;;;6313191;22;20011;-81
2022/10/20 09:31:40;;;;;;;13.90;8.65;;;9.30;99.90;;;;;;6313006;22;20023;-80
2022/10/20 09:34:26;;;;;;;12.98;9.27;;;9.40;99.90;;;;;;6312884;22;20052;-80
2022/10/20 09:37:10;;;;;;;14.07;8.50;;;9.40;99.90;;;;;;6312898;22;20023;-80
2022/10/20 09:39:45;;;;;;;17.17;8.82;;;9.40;99.90;;;;;;6312979;22;20038;-80
2022/10/20 09:42:19;;;;;;;17.20;10.02;;;9.50;99.90;;;;;;6312863;22;20025;-80
2022/10/20 09:44:57;;;;;;;13.20;9.52;;;9.60;99.90;;;;;;6312811;22;20033;-80
2022/10/20 09:47:24;;;;;;;13.57;9.38;;;9.60;99.90;;;;;;6312899;22;20018;-79
2022/10/20 09:49:56;;;;;;;13.30;9.48;;;9.70;99.90;;;;;;6340363;22;20324;-80
2022/10/20 09:52:26;;;;;;;14.30;8.90;;;9.80;99.90;;;;;;6312851;22;20098;-79
2022/10/20 09:54:59;;;;;;;16.08;9.25;;;9.80;99.90;;;;;;6340328;22;20465;-78
2022/10/20 09:57:25;;;;;;;;;;;9.80;99.90;;;;;;6339402;22;20019;-78
2022/10/20 09:59:53;;;;;;;13.60;8.48;;;9.90;99.90;;;;;;6313037;22;19921;-78
2022/10/20 10:02:22;;;;;;;12.32;8.48;;;10.00;99.90;;;;;;6312628;22;20103;-79
2022/10/20 10:04:50;;;;;;;15.27;9.02;;;10.00;99.90;;;;;;6312471;22;20015;-77
2022/10/20 10:07:25;;;;;;;11.35;8.20;;;10.10;99.90;;;;;;6311886;22;20021;-80
2022/10/20 10:09:58;;;;;;;11.73;8.95;;;10.10;99.90;;;;;;6312715;22;20019;-79
2022/10/20 10:12:26;;;;;;;13.95;8.32;;;10.20;99.90;;;;;;6312598;22;20213;-78
2022/10/20 10:14:55;;;;;;;13.25;8.10;;;10.20;99.90;;;;;;6312499;22;20045;-79
2022/10/20 10:17:32;;;;;;;13.77;8.40;;;10.30;99.90;;;;;;6312656;22;20019;-79
2022/10/20 10:19:59;;;;;;;10.80;7.55;;;10.30;99.90;;;;;;6312541;22;20023;-82
2022/10/20 10:22:25;;;;;;;12.10;8.55;;;10.40;99.90;;;;;;6340129;22;20015;-78
2022/10/20 10:24:54;;;;;;;12.75;8.60;;;10.40;99.90;;;;;;6312748;22;20151;-77
2022/10/20 10:27:30;;;;;;;12.15;8.93;;;10.50;99.90;;;;;;6340301;22;20014;-78
2022/10/20 10:30:32;;;;;;;14.20;9.13;;;10.60;99.90;;;;;;6340317;22;20026;-78
2022/10/20 10:32:59;;;;;;;13.98;8.20;;;10.70;99.90;;;;;;6317409;22;20019;-79
2022/10/20 10:35:36;;;;;;;10.20;7.82;;;10.70;99.90;;;;;;6339759;22;20022;-80
2022/10/20 10:38:02;;;;;;;13.07;8.70;;;10.80;99.90;;;;;;6312564;22;20461;-79
2022/10/20 10:40:37;;;;;;;10.90;7.60;;;10.70;99.90;;;;;;6339853;22;20484;-78
2022/10/20 10:43:23;;;;;;;12.73;8.50;;;10.70;99.90;;;;;;6312439;22;20015;-80
2022/10/20 10:46:18;;;;;;;11.40;8.52;;;10.80;99.90;;;;;;6312320;22;20022;-79
2022/10/20 10:48:54;;;;;;;9.82;7.75;;;10.90;99.90;;;;;;6340331;22;20018;-79
2022/10/20 10:51:49;;;;;;;12.43;7.43;;;11.00;99.90;;;;;;6340192;22;20076;-79
2022/10/20 10:54:44;;;;;;;10.32;7.85;;;11.20;99.90;;;;;;6312128;22;20015;-79
2022/10/20 10:57:31;;;;;;;10.50;7.25;;;11.40;99.90;;;;;;6339841;22;20346;-79
2022/10/20 11:00:00;;;;;;;12.40;7.75;;;11.50;99.90;;;;;;6312202;22;20015;-79
2022/10/20 11:02:41;;;;;;;13.05;8.55;;;11.60;99.90;;;;;;6312131;22;20026;-79
2022/10/20 11:05:38;;;;;;;9.48;7.32;;;11.70;99.90;;;;;;6312224;22;20015;-78
2022/10/20 11:08:16;;;;;;;10.68;7.60;;;11.70;99.90;;;;;;6310955;22;20019;-78
2022/10/20 11:11:02;;;;;;;10.93;7.53;;;11.70;99.90;;;;;;6311957;22;20014;-78
2022/10/20 11:13:44;;;;;;;9.80;7.97;;;11.70;99.90;;;;;;6300568;22;20030;-79
2022/10/20 11:16:37;;;;;;;9.48;7.30;;;11.80;99.90;;;;;;6339934;22;20015;-78
2022/10/20 11:19:30;;;;;;;11.40;7.47;;;11.90;99.90;;;;;;6312034;22;20021;-79
2022/10/20 11:21:58;;;;;;;10.38;7.82;;;12.00;99.90;;;;;;6311967;22;20021;-79
2022/10/20 11:24:55;;;;;;;10.68;7.28;;;12.00;99.90;;;;;;6312035;22;20023;-81
2022/10/20 11:27:26;;;;;;;14.05;8.27;;;12.10;99.90;;;;;;6311760;22;20050;-78
2022/10/20 11:30:03;;;;;;;10.93;7.80;;;12.00;99.90;;;;;;6311980;22;20018;-79
2022/10/20 11:32:36;;;;;;;9.93;7.35;;;12.10;99.90;;;;;;6311950;22;20015;-80
2022/10/20 11:35:05;;;;;;;12.38;7.68;;;12.10;99.90;;;;;;6339832;22;20069;-80
2022/10/20 11:37:44;;;;;;;10.73;7.57;;;12.20;99.90;;;;;;6311717;22;20048;-79
2022/10/20 11:40:09;;;;;;;10.20;7.40;;;12.20;99.90;;;;;;6339690;22;20042;-79
2022/10/20 11:43:00;;;;;;;11.68;7.90;;;12.20;99.90;;;;;;6311758;22;20072;-79
2022/10/20 11:45:36;;;;;;;10.38;7.75;;;12.20;99.90;;;;;;6339358;22;20015;-80
2022/10/20 11:48:22;;;;;;;10.65;7.05;;;12.30;99.90;;;;;;6311788;22;20025;-79
2022/10/20 11:50:56;;;;;;;8.77;7.50;;;12.30;99.90;;;;;;6311707;22;20385;-80
2022/10/20 11:53:55;;;;;;;10.63;7.93;;;12.40;99.90;;;;;;6311694;22;20133;-79
2022/10/20 11:56:27;;;;;;;11.30;7.55;;;12.40;99.90;;;;;;6311931;22;20064;-80
2022/10/20 11:59:24;;;;;;;12.00;7.80;;;12.40;99.90;;;;;;6311552;22;20014;-80
2022/10/20 12:02:19;;;;;;;9.45;7.00;;;12.40;99.90;;;;;;6311595;22;20262;-80
2022/10/20 12:05:07;;;;;;;10.35;8.55;;;12.50;99.90;;;;;;6311650;22;20025;-78
2022/10/20 12:07:47;;;;;;;11.88;8.15;;;12.40;99.90;;;;;;6311580;22;20022;-78
2022/10/20 12:10:41;;;;;;;10.63;7.00;;;12.40;99.90;;;;;;6339585;22;20046;-78
2022/10/20 12:13:19;;;;;;;;;;;12.40;99.90;;;;;;6339890;22;20029;-78
2022/10/20 12:15:47;;;;;;;9.98;7.03;;;12.40;99.90;;;;;;6311328;22;20359;-79
2022/10/20 12:18:25;;;;;;;12.85;7.45;;;12.40;99.90;;;;;;6311450;22;20099;-77
2022/10/20 12:20:55;;;;;;;10.38;7.60;;;12.30;99.90;;;;;;6339090;22;20022;-78
2022/10/20 12:23:45;;;;;;;10.95;8.20;;;12.40;99.90;;;;;;6339358;22;20019;-78
2022/10/20 12:26:31;;;;;;;11.30;7.70;;;12.30;99.90;;;;;;6339415;22;20015;-81
2022/10/20 12:28:58;;;;;;;11.60;7.70;;;12.30;99.90;;;;;;6339382;22;20137;-80
2022/10/20 12:31:44;;;;;;;9.95;7.00;;;12.40;99.90;;;;;;6339471;22;20072;-78
2022/10/20 12:34:22;;;;;;;11.13;7.85;;;12.40;99.90;;;;;;6311025;22;20025;-78
2022/10/20 12:36:47;;;;;;;10.27;7.22;;;12.30;99.90;;;;;;6311483;22;20064;-77
2022/10/20 12:39:17;;;;;;;12.57;7.40;;;12.30;99.90;;;;;;6311387;22;20006;-81
2022/10/20 12:41:55;;;;;;;11.30;7.18;;;12.40;99.90;;;;;;6339429;22;20011;-78
2022/10/20 12:44:22;;;;;;;10.25;7.63;;;12.30;99.90;;;;;;6338869;22;20059;-78
2022/10/20 12:46:57;;;;;;;14.55;7.50;;;12.30;99.90;;;;;;6311341;22;20026;-78
2022/10/20 12:49:31;;;;;;;12.50;7.72;;;12.30;99.90;;;;;;6311281;22;20428;-78
2022/10/20 12:51:58;;;;;;;11.38;7.07;;;12.20;99.90;;;;;;6310946;22;20029;-79
2022/10/20 12:54:33;;;;;;;14.55;8.50;;;12.20;99.90;;;;;;6310880;22;20007;-78
2022/10/20 12:57:03;;;;;;;12.90;7.78;;;12.20;99.90;;;;;;6311147;22;20023;-78
2022/10/20 12:59:29;;;;;;;11.75;7.50;;;12.20;99.90;;;;;;6339413;22;20018;-78
2022/10/20 13:02:10;;;;;;;10.45;7.20;;;12.10;99.90;;;;;;6311236;22;20027;-81